• Join FlightAware (Why Join?)
  • Login
  • US Flag 
07:36AM EDT


 

Airport Tracker/Info


-or-


 

Live Flight TrackerFlight Track Log ✈ EJA831 ✈ 24-Jul-2013 ✈ KAVL - KACK

Flight Track Log - Related Links

Times and Time Zones

All times are in EDT time to prevent confusion due to time zone crossing. See the EJA831 flight status page for this flight to view local times or setup timezone preferences in your user account.

Time Position Orientation Groundspeed Altitude Reporting Facility
EDT Latitude Longitude Course Direction KTS MPH feet Rate Location/Type
03:00PM 35.5239 -82.5742 43° Northeast 241 277 7,100  Level Atlanta Center
03:01PM 35.5856 -82.5039 43° Northeast 265 305 9,900 2,520 Climbing Atlanta Center
03:02PM 35.6472 -82.4314 44° Northeast 296 341 12,200 2,100 Climbing Atlanta Center
03:03PM 35.7172 -82.3558 41° Northeast 322 371 14,200 1,980 Climbing Atlanta Center
03:04PM 35.7869 -82.2672 46° Northeast 341 392 16,200 2,040 Climbing Atlanta Center
03:05PM 35.9619 -81.9548 39° Northeast  Level FlightAware Approximate
03:05PM 35.8708 -82.1731 42° Northeast 353 406 18,300  Level Atlanta Center
03:06PM 36.0508 -81.8587 43° Northeast  Level FlightAware Approximate
03:06PM 35.9447 -82.0869 43° Northeast 358 412 20,000  Level Atlanta Center
03:07PM 36.0244 -81.9925 44° Northeast 369 425 20,000 300 Level Atlanta Center
03:08PM 36.1083 -81.8978 42° Northeast 388 447 20,600 1,020 Climbing Atlanta Center
03:09PM 36.1861 -81.8033 44° Northeast 393 452 22,100 1,320 Climbing Atlanta Center
03:10PM 36.2675 -81.7056 44° Northeast 401 461 23,300 1,140 Climbing Atlanta Center
03:11PM 36.3492 -81.6053 45° Northeast 401 461 24,400 960 Climbing Atlanta Center
03:12PM 36.4225 -81.5181 44° Northeast 409 471 25,300 900 Climbing Atlanta Center
03:13PM 36.5078 -81.4144 44° Northeast 415 478 26,300 960 Climbing Atlanta Center
03:14PM 36.5953 -81.3108 44° Northeast 420 483 27,300 960 Climbing Atlanta Center
03:15PM 36.6825 -81.2042 44° Northeast 426 490 28,300 900 Climbing Atlanta Center
03:16PM 36.7594 -81.1108 44° Northeast 426 490 29,200 960 Climbing Atlanta Center
03:17PM 36.8528 -80.9986 44° Northeast 419 482 30,300 1,080 Climbing Atlanta Center
03:18PM 36.9517 -80.8778 44° Northeast 436 502 31,400 960 Climbing Atlanta Center
03:20PM 37.1256 -80.7056 38° Northeast 441 507 33,200 1,080 Climbing Washington Center
03:21PM 37.2503 -80.6642 15° North 421 484 34,700 1,380 Climbing Washington Center
03:22PM 37.3583 -80.6269 15° North 415 478 36,000 1,140 Climbing Washington Center
03:23PM 37.4558 -80.5419 35° Northeast 410 472 37,100 1,020 Climbing Washington Center
03:24PM 37.5153 -80.4094 60° Northeast 400 460 38,100 960 Climbing Washington Center
03:25PM 37.5583 -80.2761 68° East 417 480 39,100 900 Climbing Washington Center
03:26PM 37.6094 -80.1375 65° Northeast 427 491 40,000 720 Climbing Washington Center
03:27PM 37.6564 -79.9989 67° East 432 497 40,600 480 Climbing Washington Center
03:28PM 37.7075 -79.8547 66° East 437 503 41,000 180 Climbing Washington Center
03:29PM 37.7606 -79.7081 65° Northeast 442 509 41,000  Level Washington Center
03:30PM 37.8117 -79.5583 67° East 454 522 41,000  Level Washington Center
03:31PM 37.8650 -79.3900 68° East 460 529 41,000  Level Washington Center
03:32PM 37.9156 -79.2375 67° East 466 536 41,000  Level Washington Center
03:33PM 37.9661 -79.0844 67° East 466 536 41,000  Level Washington Center
03:34PM 38.0161 -78.9339 67° East 466 536 41,000  Level Washington Center
03:35PM 38.0597 -78.7961 68° East 466 536 41,000  Level Washington Center
03:36PM 38.1114 -78.6453 66° East 466 536 41,000  Level Washington Center
03:37PM 38.1572 -78.4806 70° East 458 527 41,000  Level Washington Center
03:38PM 38.2067 -78.3344 67° East 447 514 41,000  Level Washington Center
03:39PM 38.2558 -78.1803 68° East 447 514 41,000  Level Washington Center
03:40PM 38.3028 -78.0311 68° East 447 514 41,000  Level Washington Center
03:41PM 38.3494 -77.8819 68° East 447 514 41,000  Level Washington Center
03:42PM 38.3917 -77.7453 68° East 453 521 41,000  Level Washington Center
03:43PM 38.4422 -77.5958 67° East 453 521 41,000  Level Washington Center
03:44PM 38.4883 -77.4431 69° East 453 521 41,000  Level Washington Center
03:45PM 38.5344 -77.2903 69° East 453 521 41,000  Level Washington Center
03:47PM 38.5822 -77.1400 68° East 453 521 41,000  Level Washington Center
03:48PM 38.6389 -76.9578 68° East 453 521 41,000  Level Washington Center
03:49PM 38.6864 -76.8017 69° East 453 521 41,000  Level Washington Center
03:50PM 38.7419 -76.6589 63° Northeast 453 521 41,000  Level Washington Center
03:51PM 38.8036 -76.5161 61° Northeast 448 516 41,000  Level Washington Center
03:52PM 38.8650 -76.3728 61° Northeast 448 516 41,000  Level Washington Center
03:53PM 38.9261 -76.2294 61° Northeast 453 521 41,000  Level Washington Center
03:54PM 39.0206 -76.1047 46° Northeast 447 514 41,000  Level Washington Center
03:55PM 39.1108 -75.9847 46° Northeast 447 514 41,000  Level Washington Center
03:56PM 39.2006 -75.8700 45° Northeast 447 514 41,000  Level Washington Center
03:57PM 39.2906 -75.7553 45° Northeast 447 514 41,000  Level Washington Center
03:58PM 39.3822 -75.6372 45° Northeast 447 514 41,000  Level Washington Center
03:59PM 39.4719 -75.5217 45° Northeast 452 520 41,000  Level Washington Center
04:00PM 39.5614 -75.4031 46° Northeast 452 520 41,000  Level Washington Center
04:01PM 39.6506 -75.2869 45° Northeast 452 520 41,000  Level Washington Center
04:02PM 39.7444 -75.1528 48° Northeast 500 575 41,000  Level New York Center
04:03PM 39.8325 -75.0258 48° Northeast 507 583 41,000  Level New York Center
04:04PM 39.9181 -74.9039 48° Northeast 476 548 41,000  Level New York Center
04:05PM 39.9972 -74.7892 48° Northeast 471 542 41,000  Level New York Center
04:06PM 40.0894 -74.6481 49° Northeast 465 535 41,000  Level New York Center
04:09PM 40.2281 -74.1686 69° East 457 526 41,000  Level Boston Center
04:10PM 40.2742 -74.0122 69° East 463 533 41,000  Level Boston Center
04:11PM 40.3181 -73.8525 70° East 463 533 41,000  Level Boston Center
04:12PM 40.3636 -73.6956 69° East 463 533 41,000  Level Boston Center
04:13PM 40.4050 -73.5356 71° East 463 533 41,000  Level Boston Center
04:14PM 40.4522 -73.3808 68° East 463 533 41,000  Level Boston Center
04:15PM 40.4908 -73.2178 73° East 463 533 41,000  Level Boston Center
04:16PM 40.5397 -73.0600 68° East 463 533 41,000  Level Boston Center
04:17PM 40.5761 -72.8992 73° East 463 533 41,000 -960 Level Boston Center
04:18PM 40.6244 -72.7408 68° East 463 533 39,100 -1,620 Descending Boston Center
04:19PM 40.6622 -72.5797 73° East 463 533 37,800 -1,860 Descending Boston Center
04:20PM 40.7061 -72.4183 70° East 463 533 35,400 -2,400 Descending Boston Center
04:21PM 40.7497 -72.2647 69° East 458 527 33,000 -2,400 Descending Boston Center
04:22PM 40.7931 -72.1000 71° East 458 527 30,700 -2,400 Descending Boston Center
04:23PM 40.8364 -71.9436 70° East 458 527 28,200 -2,400 Descending Boston Center
04:24PM 40.8772 -71.8033 69° East 458 527 25,900 -2,400 Descending Boston Center
04:25PM 40.9158 -71.6464 72° East 458 527 23,400 -2,400 Descending Boston Center
04:26PM 40.9500 -71.4839 74° East 458 527 21,200 -1,800 Descending Boston Center
04:27PM 40.9842 -71.3458 72° East 425 489 19,900 -2,400 Descending Boston Center
04:28PM 41.0244 -71.1967 70° East 388 447 16,500 -3,300 Descending Boston Center
04:29PM 41.0583 -71.0636 71° East 383 441 13,400 -2,760 Descending Boston Center
04:30PM 41.0817 -70.9367 76° East 365 420 11,000 -1,740 Descending Boston Center
04:31PM 41.0758 -70.8319 94° East 340 391 10,000 -960 Descending Boston Center
04:32PM 41.0700 -70.7167 94° East 316 364 9,100 -960 Descending Boston Center
04:33PM 41.0619 -70.6039 95° East 310 357 8,100 -1,200 Descending Boston Center
04:34PM 41.0517 -70.4886 97° East 310 357 6,800 -1,380 Descending Boston Center
04:35PM 41.0436 -70.3814 96° East 310 357 5,400 -1,380 Descending Boston Center
04:36PM 41.0544 -70.2847 82° East 282 325 4,100 -1,200 Descending Boston Center
04:37PM 41.0711 -70.1853 77° East 270 311 3,000 -600 Descending Boston Center
04:38PM 41.1047 -70.1014 62° Northeast 270 311 2,900 -60 Descending Boston Center
04:39PM 41.1514 -70.0333 48° Northeast 255 293 2,900  Level Boston Center
04:40PM 41.1958 -69.9656 49° Northeast 245 282 2,900  Level Boston Center
04:41PM 41.2383 -69.9086 45° Northeast 232 267 2,900  Level Boston Center
04:42PM 41.2897 -69.8872 17° North 192 221 2,900  Level Boston Center
04:43PM 41.3439 -69.8769 North 192 221 2,900  Level Boston Center
04:44PM 41.3556 -69.9344 285° West 131 151 2,900 -300 Level Boston Center
04:45PM 41.3169 -69.9831 223° Southwest 119 137 2,400 -840 Descending Boston Center
04:46PM 41.2906 -70.0172 224° Southwest 124 143 1,300 -960 Descending Boston Center
04:47PM 41.2706 -70.0539 234° Southwest 124 143 500 -600 Descending Boston Center
04:48PM 41.2506 -70.0878 232° Southwest 124 143 100 5,220 Descending Boston Center
04:49PM 41.2303 -70.1217 232° Southwest 124 143 11,000 10,860 Climbing Boston Center